createdAt,value
2023-10-21T08:34:45.807Z,86318.78
2023-10-21T08:36:24.812Z,86312.09
2023-10-21T08:38:00.993Z,86312.00
2023-10-21T08:39:37.797Z,86312.00
2023-10-21T08:41:17.688Z,86308.25
2023-10-21T08:43:01.992Z,86312.09
2023-10-21T08:44:39.710Z,86299.25
2023-10-21T08:46:20.371Z,86301.72
2023-10-21T08:48:00.148Z,86301.91
2023-10-21T08:49:39.119Z,86296.13
2023-10-21T08:51:28.506Z,86303.69
2023-10-21T08:53:23.841Z,86289.38
2023-10-21T08:55:00.267Z,86294.63
2023-10-21T08:56:37.881Z,86291.88
2023-10-21T08:58:14.484Z,86285.78
2023-10-21T08:59:54.020Z,86285.44
2023-10-21T09:01:39.368Z,86274.50
2023-10-21T09:03:17.937Z,86276.44
2023-10-21T09:05:43.148Z,86275.16
2023-10-21T09:07:55.861Z,86271.53
2023-10-21T09:36:51.398Z,86221.44
2023-10-21T09:39:50.015Z,86216.66
2023-10-21T09:42:12.759Z,86210.47
2023-10-21T09:44:43.507Z,86220.44
2023-10-21T09:50:15.589Z,86209.44
2023-10-21T09:57:05.996Z,86190.28
2023-10-21T11:04:34.949Z,86070.19
2023-10-21T11:06:11.335Z,86067.19
2023-10-21T11:07:49.068Z,86066.94
2023-10-21T11:09:32.978Z,86058.22
2023-10-21T11:11:13.409Z,86053.41
2023-10-21T11:12:51.494Z,86047.09
2023-10-21T11:14:29.487Z,86047.44
2023-10-21T11:16:10.309Z,86042.69
2023-10-21T11:17:52.933Z,86041.06
2023-10-21T11:19:29.364Z,86037.19
2023-10-21T11:21:07.306Z,86031.09
2023-10-21T11:22:46.191Z,86036.63
2023-10-21T11:24:24.476Z,86032.38
2023-10-21T11:26:02.825Z,86019.31
2023-10-21T11:27:43.195Z,86024.50
2023-10-21T11:29:35.808Z,86018.16
2023-10-21T11:31:39.406Z,86022.41
2023-10-21T11:33:39.149Z,86004.41
2023-10-21T11:35:56.823Z,86009.38
2023-10-21T11:37:56.930Z,86011.66
2023-10-21T11:39:52.815Z,86009.97
2023-10-21T11:41:29.707Z,86010.16
2023-10-21T11:43:16.456Z,85998.16
2023-10-21T11:45:05.751Z,86002.16
2023-10-21T11:46:44.993Z,85990.19
2023-10-21T11:48:22.343Z,85995.03
2023-10-21T11:50:00.676Z,85992.22
2023-10-21T11:51:37.930Z,85986.47
2023-10-21T11:53:15.934Z,85983.91
2023-10-21T11:55:26.198Z,85985.63
2023-10-21T11:57:05.894Z,85978.97
2023-10-21T11:59:02.209Z,85977.34
2023-10-21T12:00:56.626Z,85972.00
2023-10-21T12:02:51.147Z,85975.69
2023-10-21T12:04:36.510Z,85970.84
2023-10-21T12:06:22.478Z,85971.66
2023-10-21T12:08:17.016Z,85958.47
2023-10-21T12:10:11.332Z,85956.50
2023-10-21T12:12:06.552Z,85951.78
2023-10-21T12:13:43.810Z,85956.75
2023-10-21T12:15:24.410Z,85955.53
2023-10-21T12:17:11.947Z,85952.31
2023-10-21T12:19:10.001Z,85954.56
2023-10-21T12:20:59.014Z,85953.13
2023-10-21T12:22:55.160Z,85941.94
2023-10-21T12:24:47.388Z,85937.72
2023-10-21T12:26:24.414Z,85942.53
2023-10-21T12:28:35.730Z,85939.75
2023-10-21T12:30:31.517Z,85932.06
2023-10-21T12:32:20.308Z,85920.78
2023-10-21T12:34:15.450Z,85930.66
2023-10-21T12:36:25.358Z,85928.53
2023-10-21T12:38:13.917Z,85931.72
2023-10-21T12:39:51.544Z,85915.16
2023-10-21T12:41:29.544Z,85911.59
2023-10-21T12:43:18.633Z,85905.03
2023-10-21T12:44:59.926Z,85895.91
2023-10-21T12:46:40.726Z,85893.38
2023-10-21T12:48:20.420Z,85900.44
2023-10-21T12:49:59.587Z,85901.19
2023-10-21T12:51:40.951Z,85891.31
2023-10-21T12:53:17.229Z,85876.91
2023-10-21T12:54:54.550Z,85875.72
2023-10-21T12:56:32.104Z,85880.94
2023-10-21T12:58:09.286Z,85880.88
2023-10-21T12:59:46.592Z,85878.00
2023-10-21T13:01:25.176Z,85877.28
2023-10-21T13:03:01.960Z,85876.88
2023-10-21T13:04:46.525Z,85872.16
2023-10-21T13:06:22.791Z,85878.44
2023-10-21T13:07:59.852Z,85871.88
2023-10-21T13:09:36.654Z,85873.66
2023-10-21T13:11:21.616Z,85877.81
2023-10-21T13:12:57.887Z,85865.59
2023-10-21T13:14:34.930Z,85871.72
2023-10-21T13:40:00.192Z,85867.84
2023-10-21T13:42:24.555Z,85862.31
2023-10-21T13:44:34.165Z,85862.06
2023-10-21T13:47:44.706Z,85858.50
2023-10-21T13:49:22.297Z,85855.78
2023-10-21T13:50:58.542Z,85859.06
2023-10-21T13:52:35.116Z,85849.22
2023-10-21T13:54:15.719Z,85846.75
2023-10-21T13:55:55.650Z,85846.91
2023-10-21T13:57:33.081Z,85850.09
2023-10-21T13:59:17.602Z,85842.50
2023-10-21T14:00:59.698Z,85851.25
2023-10-21T14:02:37.132Z,85854.13
2023-10-21T14:04:16.666Z,85853.28
2023-10-21T14:06:02.274Z,85854.34
2023-10-21T14:07:38.787Z,85848.75
2023-10-21T14:09:34.173Z,85852.50
2023-10-21T14:11:12.074Z,85848.41
2023-10-21T14:12:51.637Z,85846.19
2023-10-21T14:14:28.584Z,85839.34
2023-10-21T14:16:09.616Z,85848.72
2023-10-21T14:17:48.144Z,85840.66
2023-10-21T14:19:26.536Z,85847.50
2023-10-21T14:21:06.903Z,85840.19
2023-10-21T14:22:46.139Z,85845.50
2023-10-21T14:24:24.949Z,85842.16
2023-10-21T14:26:06.219Z,85841.13
2023-10-21T14:27:45.659Z,85838.66
2023-10-21T14:29:23.713Z,85845.66
2023-10-21T14:31:03.228Z,85844.41
2023-10-21T14:32:44.053Z,85845.09
2023-10-21T14:34:23.715Z,85836.31
2023-10-21T14:36:09.109Z,85842.75
2023-10-21T14:37:48.135Z,85834.28
2023-10-21T14:39:25.581Z,85841.16
2023-10-21T14:41:03.298Z,85837.66
2023-10-21T14:42:46.769Z,85842.88
2023-10-21T14:44:23.392Z,85832.19
2023-10-21T14:46:17.888Z,85840.66
2023-10-21T14:47:54.463Z,85842.22
2023-10-21T14:49:50.710Z,85837.09
2023-10-21T14:51:33.215Z,85836.13
2023-10-21T14:53:28.287Z,85832.44
2023-10-21T14:55:32.797Z,85838.78
2023-10-21T14:57:17.652Z,85823.16
2023-10-21T14:58:54.555Z,85837.44
2023-10-21T15:00:31.142Z,85830.84
2023-10-21T15:02:08.092Z,85835.47
2023-10-21T15:03:45.105Z,85828.16
2023-10-21T15:05:22.791Z,85832.00
2023-10-21T15:07:00.939Z,85831.97
2023-10-21T15:08:40.086Z,85826.03
2023-10-21T15:10:20.608Z,85823.41
2023-10-21T15:11:57.597Z,85818.19
2023-10-21T15:13:34.003Z,85817.91
2023-10-21T15:15:15.511Z,85815.13
2023-10-21T15:16:52.786Z,85817.56
2023-10-21T15:18:46.967Z,85815.31
2023-10-21T15:20:27.599Z,85817.41
2023-10-21T15:22:05.160Z,85813.50
2023-10-21T15:23:42.205Z,85822.34
2023-10-21T15:25:21.757Z,85816.06
2023-10-21T15:27:19.359Z,85814.84
2023-10-21T15:34:49.308Z,85811.72
2023-10-21T15:40:26.411Z,85806.94
2023-10-21T15:42:56.661Z,85799.88
2023-10-21T15:44:33.447Z,85800.00
2023-10-21T15:46:11.904Z,85802.81
2023-10-21T15:47:48.293Z,85807.00
2023-10-21T15:49:26.114Z,85804.66
2023-10-21T15:51:16.433Z,85800.28
2023-10-21T15:52:53.089Z,85800.41
2023-10-21T15:54:36.206Z,85819.88
2023-10-21T15:56:15.016Z,85808.44
2023-10-21T15:57:53.734Z,85811.91
2023-10-21T15:59:30.720Z,85806.34
2023-10-21T17:10:32.207Z,85795.72
2023-10-21T17:12:09.080Z,85782.22
2023-10-21T17:13:46.111Z,85771.63
2023-10-21T17:15:23.524Z,85771.91
2023-10-21T17:17:01.637Z,85764.13
2023-10-21T17:18:39.641Z,85758.78
2023-10-21T17:20:17.597Z,85761.25
2023-10-21T17:22:03.414Z,85753.75
2023-10-21T17:23:40.306Z,85746.53
2023-10-21T17:25:16.678Z,85751.31
2023-10-21T17:26:55.304Z,85753.25
2023-10-21T17:28:32.299Z,85763.06
2023-10-21T17:30:10.381Z,85761.22
2023-10-21T17:31:46.800Z,85763.50
2023-10-21T17:33:26.425Z,85769.16
2023-10-21T17:35:07.702Z,85768.44
2023-10-21T17:36:45.305Z,85769.97
2023-10-21T17:38:24.323Z,85767.09
2023-10-21T17:40:02.324Z,85769.28
2023-10-21T17:41:43.073Z,85769.72
2023-10-21T17:43:21.952Z,85769.28
2023-10-21T17:44:58.627Z,85774.53
2023-10-21T17:46:35.243Z,85771.84
2023-10-21T17:48:11.959Z,85779.75
2023-10-21T17:49:50.874Z,85779.09
2023-10-21T17:51:28.326Z,85782.56
2023-10-21T17:53:08.637Z,85779.50
2023-10-21T17:54:48.840Z,85779.94
2023-10-21T17:56:25.910Z,85779.97
2023-10-21T17:58:05.173Z,85779.63
2023-10-21T17:59:42.286Z,85781.63
2023-10-21T18:01:18.661Z,85780.19
2023-10-21T18:03:01.908Z,85775.38
2023-10-21T18:04:40.053Z,85783.50
2023-10-21T18:06:19.133Z,85783.63
2023-10-21T18:07:58.230Z,85775.72
2023-10-21T18:09:35.849Z,85774.47
2023-10-21T18:11:15.461Z,85782.16
2023-10-21T18:12:52.569Z,85778.97
2023-10-21T18:14:30.265Z,85782.75
2023-10-21T18:16:08.277Z,85779.34
2023-10-21T18:17:45.124Z,85783.03
2023-10-21T18:19:26.666Z,85776.50
2023-10-21T18:21:03.580Z,85785.38
2023-10-21T18:22:46.494Z,85772.97
2023-10-21T18:24:23.702Z,85777.19
2023-10-21T18:26:09.601Z,85774.66
2023-10-21T18:27:46.702Z,85777.03
2023-10-21T18:29:24.382Z,85773.94
2023-10-21T18:31:01.218Z,85785.69
2023-10-21T18:32:39.769Z,85783.66
2023-10-21T18:34:21.981Z,85785.50
2023-10-21T18:36:00.480Z,85780.97
2023-10-21T18:37:37.102Z,85783.72
2023-10-21T18:39:15.225Z,85782.75
2023-10-21T18:40:54.460Z,85774.53
2023-10-21T18:42:31.241Z,85768.38
2023-10-21T18:44:08.368Z,85769.34
2023-10-21T18:45:45.915Z,85768.50
2023-10-21T18:47:25.942Z,85775.31
2023-10-21T18:49:12.296Z,85777.75
2023-10-21T18:50:58.301Z,85778.50
2023-10-21T18:52:35.850Z,85782.94
2023-10-21T18:54:16.138Z,85785.94
2023-10-21T18:55:52.799Z,85791.41
2023-10-21T18:59:20.529Z,85784.84
2023-10-21T19:01:05.409Z,85785.25
2023-10-21T19:02:42.286Z,85789.84
2023-10-21T19:04:20.819Z,85789.22
2023-10-21T19:05:58.291Z,85804.22
2023-10-21T19:07:43.583Z,85805.09
2023-10-21T19:09:27.595Z,85814.09
2023-10-21T19:11:13.765Z,85818.03
2023-10-21T19:12:52.990Z,85828.31
2023-10-21T19:14:32.661Z,85827.00
2023-10-21T19:16:09.638Z,85829.13
2023-10-21T19:17:47.677Z,85842.31
2023-10-21T19:19:26.612Z,85834.94
2023-10-21T19:21:10.132Z,85843.53
2023-10-21T21:01:43.870Z,85926.97
2023-10-21T21:03:22.137Z,85941.00
2023-10-21T21:05:12.420Z,85948.78
2023-10-21T21:06:53.142Z,85954.78
2023-10-21T21:08:31.360Z,85966.25
2023-10-21T21:10:10.175Z,85982.97
2023-10-21T21:11:50.895Z,85988.50
2023-10-21T21:13:27.432Z,86001.88
2023-10-21T21:15:11.608Z,86021.66
2023-10-21T21:16:48.375Z,86026.53
2023-10-21T21:18:25.554Z,86044.66
2023-10-21T21:20:02.237Z,86073.66
2023-10-21T21:21:39.198Z,86058.91
2023-10-21T21:23:17.211Z,86069.19
2023-10-21T21:24:53.542Z,86081.06
2023-10-21T21:26:30.982Z,86054.28
2023-10-21T21:28:07.383Z,86031.78
2023-10-21T21:29:44.954Z,85991.06
2023-10-21T21:31:24.218Z,85963.25
2023-10-21T21:33:02.525Z,85959.41
2023-10-21T21:34:41.899Z,85949.22
2023-10-21T21:36:19.443Z,85943.13
2023-10-21T21:37:57.750Z,85909.28
2023-10-21T21:39:35.839Z,85928.34
2023-10-21T21:41:23.871Z,85944.00
2023-10-21T21:43:01.566Z,85935.50
2023-10-21T21:44:38.480Z,85919.25
2023-10-21T21:46:25.383Z,85906.34
2023-10-21T21:48:01.747Z,85906.22
2023-10-21T21:49:41.314Z,85900.25
2023-10-21T21:51:20.871Z,85908.53
2023-10-21T21:52:57.320Z,85911.44
2023-10-21T21:54:36.969Z,85914.03
2023-10-21T21:56:14.563Z,85912.78
2023-10-21T21:57:51.269Z,85922.31
2023-10-21T21:59:30.700Z,85918.22
2023-10-21T22:01:08.309Z,85922.47
2023-10-21T22:02:54.895Z,85919.09
2023-10-21T22:04:36.608Z,85924.25
2023-10-21T22:06:14.563Z,85929.63
2023-10-21T22:07:50.898Z,85942.44
2023-10-21T22:09:30.033Z,85943.16
2023-10-21T22:11:07.409Z,85944.59
2023-10-21T22:12:43.901Z,85952.97
2023-10-21T22:14:23.088Z,85938.72
2023-10-21T22:16:03.653Z,85931.19
2023-10-21T22:17:41.116Z,85921.94
2023-10-21T22:19:18.780Z,85909.38
2023-10-21T22:20:56.355Z,85917.16
2023-10-21T22:22:33.067Z,85920.84
2023-10-21T22:24:10.433Z,85917.50
2023-10-21T22:25:47.814Z,85921.00
2023-10-21T22:27:30.170Z,85908.22
2023-10-21T22:29:17.330Z,85895.81
2023-10-21T22:31:02.274Z,85892.38
2023-10-21T22:32:41.681Z,85872.72
2023-10-21T22:34:19.595Z,85870.72
2023-10-21T22:35:58.120Z,85891.78
2023-10-21T22:37:35.246Z,85909.00
2023-10-21T22:39:15.386Z,85921.59
2023-10-21T22:40:55.803Z,85928.50
2023-10-21T22:42:32.599Z,85926.13
2023-10-21T22:44:08.924Z,85913.63
2023-10-21T22:45:45.362Z,85916.78
2023-10-21T22:47:21.748Z,85902.75
2023-10-21T22:48:59.866Z,85906.06
2023-10-21T22:50:39.446Z,85885.22
2023-10-21T22:52:15.967Z,85891.63
2023-10-21T22:53:52.711Z,85882.91
2023-10-21T22:55:30.183Z,85867.22
2023-10-21T22:57:08.231Z,85855.41
2023-10-21T22:58:46.718Z,85856.88
2023-10-21T23:00:23.998Z,85858.50
2023-10-21T23:02:01.585Z,85862.53
2023-10-21T23:03:38.095Z,85867.78
2023-10-21T23:05:16.209Z,85868.88
2023-10-21T23:07:02.687Z,85839.81
2023-10-21T23:08:42.835Z,85829.94
2023-10-21T23:10:26.074Z,85821.00
2023-10-21T23:12:04.348Z,85815.31
2023-10-21T23:13:41.529Z,85820.72
2023-10-21T23:15:19.722Z,85823.88
2023-10-21T23:16:56.120Z,85839.06
2023-10-21T23:18:33.638Z,85842.44
2023-10-21T23:20:11.216Z,85846.47
2023-10-21T23:21:51.679Z,85853.06
2023-10-21T23:23:27.986Z,85852.72
2023-10-21T23:25:05.407Z,85857.22
2023-10-21T23:26:46.042Z,85854.91
2023-10-21T23:28:26.817Z,85857.16
2023-10-21T23:30:03.527Z,85855.34
2023-10-21T23:31:41.870Z,85840.81
2023-10-21T23:33:18.841Z,85830.91
2023-10-21T23:34:55.757Z,85818.00
2023-10-21T23:36:33.391Z,85794.19
2023-10-21T23:38:10.977Z,85776.56
2023-10-21T23:39:47.169Z,85771.53
2023-10-21T23:41:25.002Z,85783.78
2023-10-21T23:43:01.256Z,85803.53
2023-10-21T23:44:37.921Z,85799.34
2023-10-21T23:46:14.369Z,85812.63
2023-10-21T23:47:51.948Z,85817.28
2023-10-21T23:49:28.761Z,85809.44
2023-10-21T23:51:06.145Z,85803.88
2023-10-21T23:52:45.330Z,85801.56
2023-10-21T23:54:24.573Z,85795.97
2023-10-21T23:56:00.792Z,85801.84
2023-10-21T23:57:37.329Z,85805.94
2023-10-21T23:59:13.514Z,85802.06
